Time;durP1;ratioP1;P1;durP2;ratioP2;P2;SDS_P1;SDS_P2;PMS_P1;PMS_P2;Temp;Humidity;BMP_temperature;BMP_pressure;BME280_temperature;BME280_humidity;BME280_pressure;Samples;Min_cycle;Max_cycle;Signal;HPM_P1;HPM_P2
2020/12/21 00:00:23;;;;;;;1.27;0.40;;;20.90;44.70;;;;;;5049299;28;20071;-42
2020/12/21 00:02:48;;;;;;;1.92;0.65;;;20.80;45.00;;;;;;5019830;28;20029;-41
2020/12/21 00:05:14;;;;;;;1.98;0.40;;;20.90;44.50;;;;;;5049900;28;20029;-41
2020/12/21 00:07:41;;;;;;;1.13;0.60;;;20.90;44.50;;;;;;5031240;28;20462;-43
2020/12/21 00:10:07;;;;;;;1.65;0.40;;;20.90;44.50;;;;;;5049893;28;20056;-40
2020/12/21 00:12:32;;;;;;;0.80;0.35;;;20.90;44.40;;;;;;5046551;28;20073;-44
2020/12/21 00:14:59;;;;;;;1.02;0.60;;;21.00;44.20;;;;;;5050019;28;20041;-40
2020/12/21 00:17:24;;;;;;;1.10;0.30;;;21.00;44.20;;;;;;5046876;28;20082;-43
2020/12/21 00:19:50;;;;;;;1.40;0.40;;;20.90;44.20;;;;;;5047922;28;20048;-37
2020/12/21 00:22:18;;;;;;;1.00;0.20;;;20.90;44.20;;;;;;5047727;28;20130;-42
2020/12/21 00:24:45;;;;;;;2.15;0.60;;;20.90;44.20;;;;;;5045837;28;20043;-41
2020/12/21 00:27:10;;;;;;;1.00;0.20;;;20.90;44.20;;;;;;5046273;28;20020;-39
2020/12/21 00:29:36;;;;;;;1.45;0.55;;;20.90;44.20;;;;;;5045834;28;20079;-40
2020/12/21 00:32:02;;;;;;;2.00;0.40;;;20.80;44.30;;;;;;5053029;28;20052;-44
2020/12/21 00:34:28;;;;;;;1.65;0.70;;;20.80;44.30;;;;;;5030294;28;20029;-40
2020/12/21 00:36:54;;;;;;;1.40;0.30;;;20.80;44.30;;;;;;5048888;28;20035;-40
2020/12/21 00:39:21;;;;;;;1.05;0.30;;;20.70;44.30;;;;;;5049402;28;20020;-43
2020/12/21 00:41:47;;;;;;;0.75;0.30;;;20.70;44.30;;;;;;5048664;28;20056;-42
2020/12/21 00:44:13;;;;;;;1.30;0.30;;;20.80;44.30;;;;;;5048811;28;20023;-40
2020/12/21 00:46:40;;;;;;;0.80;0.30;;;20.70;44.30;;;;;;5048098;28;20021;-42
2020/12/21 00:49:06;;;;;;;0.80;0.20;;;20.70;44.40;;;;;;5048243;28;20028;-43
2020/12/21 00:51:33;;;;;;;1.67;0.60;;;20.70;44.40;;;;;;5047980;28;20033;-39
2020/12/21 00:53:58;;;;;;;0.57;0.20;;;20.70;44.40;;;;;;5048640;28;20029;-39
2020/12/21 00:56:24;;;;;;;0.60;0.30;;;20.70;44.40;;;;;;5044700;28;20480;-40
2020/12/21 00:58:51;;;;;;;1.00;0.28;;;20.70;44.50;;;;;;5041542;28;20024;-41
2020/12/21 01:01:22;;;;;;;1.20;0.35;;;20.60;44.40;;;;;;5049226;28;20036;-41
2020/12/21 01:03:47;;;;;;;1.35;0.40;;;20.60;44.40;;;;;;5048389;28;20052;-42
2020/12/21 01:06:16;;;;;;;0.98;0.35;;;20.60;44.50;;;;;;5048324;28;20156;-43
2020/12/21 01:08:44;;;;;;;1.27;0.30;;;20.60;44.50;;;;;;5048565;28;20493;-41
2020/12/21 01:11:11;;;;;;;1.35;0.28;;;20.60;44.50;;;;;;5048427;28;20032;-44
2020/12/21 01:13:38;;;;;;;0.65;0.20;;;20.50;44.40;;;;;;5031538;28;20471;-43
2020/12/21 01:16:04;;;;;;;1.13;0.28;;;20.60;44.50;;;;;;5029186;28;20481;-43
2020/12/21 01:18:30;;;;;;;1.23;0.30;;;20.50;45.00;;;;;;5023711;28;20494;-45
2020/12/21 01:20:56;;;;;;;0.73;0.30;;;20.50;44.50;;;;;;5048199;28;20027;-39
2020/12/21 01:23:21;;;;;;;1.65;0.40;;;20.50;44.50;;;;;;5047201;28;20029;-43
2020/12/21 01:25:47;;;;;;;0.80;0.30;;;20.50;44.50;;;;;;5044903;28;20028;-41
2020/12/21 01:28:12;;;;;;;0.60;0.20;;;20.50;44.60;;;;;;5044606;28;20402;-38
2020/12/21 01:30:38;;;;;;;1.77;0.20;;;20.50;44.50;;;;;;5022571;28;20033;-41
2020/12/21 01:33:03;;;;;;;0.60;0.20;;;20.50;44.60;;;;;;5047799;28;20036;-41
2020/12/21 01:35:29;;;;;;;0.63;0.20;;;20.50;44.50;;;;;;5047464;28;20059;-44
2020/12/21 01:37:55;;;;;;;0.40;0.20;;;20.40;44.50;;;;;;5046236;28;20075;-39
2020/12/21 01:40:20;;;;;;;1.67;0.32;;;20.40;44.50;;;;;;5028462;28;20032;-41
2020/12/21 01:42:46;;;;;;;0.60;0.20;;;20.40;44.50;;;;;;5048235;28;20067;-43
2020/12/21 01:45:12;;;;;;;0.68;0.20;;;20.50;44.50;;;;;;5046835;28;20047;-42
2020/12/21 01:47:38;;;;;;;1.20;0.25;;;20.50;44.50;;;;;;5047413;28;20033;-41
2020/12/21 01:50:05;;;;;;;1.00;0.30;;;20.40;44.50;;;;;;5030205;28;20112;-41
2020/12/21 01:52:32;;;;;;;1.70;0.30;;;20.40;44.50;;;;;;5047673;28;20362;-42
2020/12/21 01:54:57;;;;;;;1.10;0.20;;;20.40;44.50;;;;;;5044697;28;20355;-44
2020/12/21 01:57:23;;;;;;;0.77;0.20;;;20.40;44.50;;;;;;5045833;28;20028;-42
2020/12/21 01:59:49;;;;;;;0.88;0.20;;;20.40;44.50;;;;;;5029242;28;20037;-44
2020/12/21 02:02:14;;;;;;;1.35;0.30;;;20.40;44.50;;;;;;5039308;28;20405;-41
2020/12/21 02:04:40;;;;;;;0.65;0.15;;;20.40;44.50;;;;;;5046501;28;20486;-41
2020/12/21 02:07:07;;;;;;;0.50;0.17;;;20.40;44.60;;;;;;5046317;28;20024;-44
2020/12/21 02:09:33;;;;;;;1.05;0.30;;;20.40;44.60;;;;;;5047011;28;20108;-42
2020/12/21 02:11:59;;;;;;;1.23;0.20;;;20.30;44.50;;;;;;5047943;28;20037;-42
2020/12/21 02:14:25;;;;;;;1.00;0.20;;;20.30;44.50;;;;;;5046297;28;20055;-43
2020/12/21 02:16:50;;;;;;;0.82;0.20;;;20.30;44.60;;;;;;5045783;28;20473;-42
2020/12/21 02:19:18;;;;;;;1.15;0.20;;;20.30;44.50;;;;;;5039904;28;20104;-45
2020/12/21 02:21:44;;;;;;;1.02;0.30;;;20.30;44.50;;;;;;5044235;28;20043;-39
2020/12/21 02:24:10;;;;;;;1.00;0.30;;;20.30;44.50;;;;;;5048504;28;20096;-41
2020/12/21 02:26:35;;;;;;;1.27;0.20;;;20.30;44.60;;;;;;5043130;28;20125;-42
2020/12/21 02:29:01;;;;;;;1.13;0.20;;;20.30;44.60;;;;;;5022531;28;20072;-42
2020/12/21 02:31:27;;;;;;;2.78;0.10;;;20.30;44.60;;;;;;5042574;28;20079;-43
2020/12/21 02:33:53;;;;;;;1.67;0.38;;;20.30;44.60;;;;;;5048425;28;20034;-40
2020/12/21 02:36:19;;;;;;;1.35;0.20;;;20.20;44.60;;;;;;5043448;28;20128;-44
2020/12/21 02:38:45;;;;;;;0.52;0.10;;;20.20;44.60;;;;;;5047432;28;20123;-41
2020/12/21 02:41:15;;;;;;;2.05;0.20;;;20.20;44.60;;;;;;5043740;28;20087;-41
2020/12/21 02:43:40;;;;;;;1.73;0.22;;;20.20;44.60;;;;;;5047580;28;20040;-40
2020/12/21 02:46:14;;;;;;;0.77;0.20;;;20.20;44.60;;;;;;5046184;28;20029;-45
2020/12/21 02:48:40;;;;;;;1.20;0.30;;;20.20;44.60;;;;;;5046397;28;20401;-44
2020/12/21 02:51:06;;;;;;;0.88;0.20;;;20.20;44.60;;;;;;5028338;28;20029;-38
2020/12/21 02:53:31;;;;;;;0.68;0.20;;;20.20;44.60;;;;;;5054026;28;20068;-43
2020/12/21 02:55:57;;;;;;;0.90;0.20;;;20.20;44.60;;;;;;5048470;28;20512;-41
2020/12/21 02:58:23;;;;;;;0.65;0.17;;;20.20;45.10;;;;;;5026512;28;20155;-43
2020/12/21 03:00:48;;;;;;;0.85;0.38;;;20.20;44.60;;;;;;5030523;28;20017;-41
2020/12/21 03:03:14;;;;;;;0.55;0.15;;;20.20;44.60;;;;;;5048668;28;20396;-40
2020/12/21 03:05:40;;;;;;;1.08;0.38;;;20.20;44.60;;;;;;5046566;28;20025;-41
2020/12/21 03:08:07;;;;;;;0.60;0.15;;;20.20;44.60;;;;;;5045236;28;20027;-39
2020/12/21 03:10:34;;;;;;;0.63;0.17;;;20.20;44.60;;;;;;5046272;28;20112;-41
2020/12/21 03:12:59;;;;;;;0.88;0.20;;;20.20;44.60;;;;;;5046255;28;20028;-42
2020/12/21 03:15:26;;;;;;;1.00;0.20;;;20.20;44.60;;;;;;5042270;28;20021;-42
2020/12/21 03:17:51;;;;;;;0.57;0.10;;;20.10;44.50;;;;;;5042988;28;20021;-43
2020/12/21 03:20:19;;;;;;;1.48;0.20;;;20.10;44.50;;;;;;5046519;28;20515;-44
2020/12/21 03:22:47;;;;;;;1.92;0.30;;;20.20;44.60;;;;;;5046873;28;20061;-42
2020/12/21 03:25:13;;;;;;;0.43;0.13;;;20.20;44.60;;;;;;5047200;28;20021;-41
2020/12/21 03:27:38;;;;;;;0.63;0.20;;;20.10;44.60;;;;;;5045347;28;20543;-43
2020/12/21 03:30:05;;;;;;;1.33;0.30;;;20.10;44.50;;;;;;5043587;28;20059;-40
2020/12/21 03:32:30;;;;;;;0.40;0.17;;;20.10;44.60;;;;;;5042654;28;20029;-42
2020/12/21 03:34:56;;;;;;;0.98;0.25;;;20.10;44.60;;;;;;5041845;28;20025;-40
2020/12/21 03:37:22;;;;;;;1.50;0.20;;;20.10;44.60;;;;;;5027201;28;20040;-40
2020/12/21 03:39:47;;;;;;;0.95;0.20;;;20.10;44.60;;;;;;5046397;28;20029;-43
2020/12/21 03:42:13;;;;;;;0.77;0.10;;;20.10;44.60;;;;;;5046227;28;20435;-42
2020/12/21 03:44:38;;;;;;;0.50;0.20;;;20.10;44.60;;;;;;5038776;28;20036;-41
2020/12/21 03:47:04;;;;;;;0.30;0.20;;;20.10;44.60;;;;;;5047480;28;20020;-37
2020/12/21 03:49:30;;;;;;;1.52;0.20;;;20.00;44.60;;;;;;5041836;28;20068;-43
2020/12/21 03:51:55;;;;;;;0.60;0.10;;;20.10;44.60;;;;;;5050669;28;20078;-43
2020/12/21 03:54:22;;;;;;;0.60;0.15;;;20.00;44.60;;;;;;5042729;28;20032;-41
2020/12/21 03:56:48;;;;;;;0.60;0.25;;;20.10;44.60;;;;;;5049581;28;20458;-43
2020/12/21 03:59:14;;;;;;;0.70;0.10;;;20.00;44.50;;;;;;5046800;28;20065;-44
2020/12/21 04:01:39;;;;;;;0.50;0.10;;;20.00;44.60;;;;;;5044306;28;20124;-41
2020/12/21 04:04:07;;;;;;;0.43;0.10;;;20.10;44.60;;;;;;5050279;28;20021;-41
2020/12/21 04:06:34;;;;;;;0.40;0.10;;;20.00;44.50;;;;;;5043985;28;20090;-42
2020/12/21 04:09:00;;;;;;;0.43;0.10;;;20.00;44.60;;;;;;5049295;28;20434;-41
2020/12/21 04:11:25;;;;;;;0.50;0.17;;;20.00;44.50;;;;;;5046338;28;20029;-42
2020/12/21 04:13:51;;;;;;;0.75;0.20;;;20.00;44.50;;;;;;5047614;28;20058;-43
2020/12/21 04:16:16;;;;;;;0.43;0.20;;;20.00;44.60;;;;;;5045483;28;20056;-45
2020/12/21 04:18:42;;;;;;;0.30;0.10;;;20.00;44.60;;;;;;5050094;28;20033;-41
2020/12/21 04:21:14;;;;;;;0.50;0.15;;;20.00;44.60;;;;;;5048043;28;20036;-42
2020/12/21 04:23:41;;;;;;;1.00;0.10;;;20.00;44.60;;;;;;5048797;28;20036;-45
2020/12/21 04:26:07;;;;;;;0.50;0.10;;;20.00;44.60;;;;;;5048472;28;20021;-42
2020/12/21 04:28:34;;;;;;;1.23;0.20;;;20.00;44.60;;;;;;5049083;28;20036;-41
2020/12/21 04:31:00;;;;;;;1.00;0.15;;;20.00;44.60;;;;;;5045580;28;20032;-42
2020/12/21 04:33:26;;;;;;;0.85;0.10;;;20.00;44.60;;;;;;5028376;28;20549;-39
2020/12/21 04:35:52;;;;;;;0.85;0.20;;;20.00;44.60;;;;;;5049012;28;20107;-44
2020/12/21 04:38:17;;;;;;;0.60;0.13;;;20.00;44.60;;;;;;5047120;28;20021;-44
2020/12/21 04:40:43;;;;;;;0.40;0.10;;;20.00;44.60;;;;;;5048927;28;20158;-39
2020/12/21 04:43:09;;;;;;;0.88;0.20;;;19.90;44.60;;;;;;5046470;28;20059;-41
2020/12/21 04:45:35;;;;;;;0.70;0.10;;;19.90;44.60;;;;;;5043654;28;21630;-40
2020/12/21 04:48:06;;;;;;;0.32;0.13;;;20.00;44.60;;;;;;5047224;28;20089;-41
2020/12/21 04:50:32;;;;;;;0.82;0.10;;;19.90;44.60;;;;;;5031044;28;20067;-45
2020/12/21 04:52:59;;;;;;;0.70;0.10;;;19.90;44.50;;;;;;5047799;28;20381;-41
2020/12/21 04:55:25;;;;;;;1.40;0.08;;;19.90;44.50;;;;;;5047605;28;20037;-41
2020/12/21 04:58:09;;;;;;;0.45;0.10;;;19.90;44.50;;;;;;5042934;28;20473;-40
2020/12/21 05:00:34;;;;;;;0.20;0.10;;;19.90;44.50;;;;;;5047192;28;20090;-43
2020/12/21 05:03:03;;;;;;;0.80;0.13;;;19.90;44.50;;;;;;5050068;28;20009;-45
2020/12/21 05:05:34;;;;;;;0.50;0.00;;;19.90;44.50;;;;;;5049217;28;20032;-41
2020/12/21 05:08:09;;;;;;;1.08;0.15;;;19.90;44.50;;;;;;5048711;28;20077;-45
2020/12/21 05:10:37;;;;;;;0.30;0.10;;;19.90;44.50;;;;;;5045670;28;20383;-41
2020/12/21 05:13:03;;;;;;;0.25;0.10;;;19.90;44.50;;;;;;5050828;28;20097;-45
2020/12/21 05:15:29;;;;;;;0.85;0.15;;;19.90;44.50;;;;;;5055065;28;20028;-44
2020/12/21 05:18:05;;;;;;;0.63;0.10;;;19.90;44.40;;;;;;5049428;28;20025;-43
2020/12/21 05:20:32;;;;;;;0.65;0.10;;;19.90;44.50;;;;;;5048780;28;20554;-45
2020/12/21 05:22:57;;;;;;;0.80;0.10;;;19.90;44.50;;;;;;5048168;28;20032;-42
2020/12/21 05:25:23;;;;;;;2.05;0.20;;;19.90;44.50;;;;;;5046928;28;20394;-41
2020/12/21 05:27:49;;;;;;;1.17;0.25;;;19.80;44.50;;;;;;5044597;28;20035;-41
2020/12/21 05:30:14;;;;;;;0.68;0.20;;;19.80;44.50;;;;;;5049784;28;20102;-38
2020/12/21 05:32:40;;;;;;;0.50;0.10;;;19.80;44.50;;;;;;5047800;28;20028;-42
2020/12/21 05:35:08;;;;;;;0.50;0.10;;;19.80;44.50;;;;;;5046945;28;20021;-42
2020/12/21 05:37:35;;;;;;;0.77;0.10;;;19.80;44.50;;;;;;5039358;28;20021;-41
2020/12/21 05:40:02;;;;;;;0.70;0.10;;;19.80;44.50;;;;;;5029733;28;20024;-42
2020/12/21 05:42:27;;;;;;;0.55;0.10;;;19.80;44.50;;;;;;5046501;28;20123;-41
2020/12/21 05:45:01;;;;;;;0.57;0.10;;;19.80;44.50;;;;;;5048066;28;20425;-42
2020/12/21 05:47:28;;;;;;;0.52;0.10;;;19.80;44.50;;;;;;5026476;28;20166;-44
2020/12/21 05:50:04;;;;;;;0.65;0.10;;;19.80;44.50;;;;;;5047317;28;20047;-43
2020/12/21 05:52:37;;;;;;;1.67;0.13;;;19.80;44.50;;;;;;5024426;28;20156;-41
2020/12/21 05:55:10;;;;;;;0.25;0.10;;;19.80;44.50;;;;;;5041141;28;20151;-42
2020/12/21 05:57:38;;;;;;;0.13;0.00;;;19.80;44.50;;;;;;5018229;28;20028;-40
2020/12/21 06:00:10;;;;;;;0.65;0.10;;;19.80;44.50;;;;;;5048036;28;20037;-43
2020/12/21 06:02:36;;;;;;;0.88;0.10;;;19.80;44.50;;;;;;5044331;28;20473;-40
2020/12/21 06:05:08;;;;;;;0.50;0.10;;;19.80;44.50;;;;;;5047453;28;20055;-42
2020/12/21 06:07:35;;;;;;;0.40;0.10;;;19.80;44.50;;;;;;5039983;28;20123;-43
2020/12/21 06:10:03;;;;;;;0.82;0.15;;;19.80;44.40;;;;;;5047798;28;20032;-40
2020/12/21 06:12:36;;;;;;;0.35;0.10;;;19.80;44.40;;;;;;5027828;28;20044;-40
2020/12/21 06:15:07;;;;;;;0.50;0.10;;;19.90;44.40;;;;;;5028885;28;20363;-41
2020/12/21 06:17:35;;;;;;;0.50;0.10;;;19.90;44.20;;;;;;5043197;28;20029;-40
2020/12/21 06:20:06;;;;;;;0.20;0.00;;;20.00;44.00;;;;;;5048361;28;20033;-41
2020/12/21 06:22:32;;;;;;;0.20;0.00;;;20.20;44.00;;;;;;5033484;28;20060;-43
2020/12/21 06:24:58;;;;;;;0.57;0.10;;;20.20;43.80;;;;;;5046130;28;20469;-40
2020/12/21 06:27:23;;;;;;;0.25;0.08;;;20.30;43.70;;;;;;5044616;28;20044;-41
2020/12/21 06:29:59;;;;;;;0.25;0.10;;;20.40;43.50;;;;;;5046590;28;20053;-42
2020/12/21 06:32:31;;;;;;;0.25;0.00;;;20.50;43.40;;;;;;5038034;28;20125;-39
2020/12/21 06:34:57;;;;;;;0.68;0.10;;;20.50;43.40;;;;;;5041168;28;20021;-40
2020/12/21 06:37:24;;;;;;;0.80;0.10;;;20.60;43.30;;;;;;5044315;28;20017;-40
2020/12/21 06:40:01;;;;;;;0.30;0.10;;;20.60;43.30;;;;;;5047112;28;20041;-43
2020/12/21 06:42:27;;;;;;;0.20;0.00;;;20.70;43.30;;;;;;5047716;28;20505;-43
2020/12/21 06:44:54;;;;;;;0.38;0.00;;;20.70;43.20;;;;;;5040694;28;20157;-43
2020/12/21 06:47:21;;;;;;;0.40;0.10;;;20.70;43.20;;;;;;5045298;28;20021;-37
2020/12/21 06:49:47;;;;;;;0.43;0.10;;;20.70;43.20;;;;;;5045495;28;20024;-43
2020/12/21 06:52:13;;;;;;;0.13;0.10;;;20.70;43.20;;;;;;5046434;28;20032;-41
2020/12/21 06:54:38;;;;;;;0.30;0.10;;;20.70;43.70;;;;;;5046747;28;20052;-43
2020/12/21 06:57:04;;;;;;;0.20;0.00;;;20.70;43.30;;;;;;5044816;28;20032;-43
2020/12/21 06:59:29;;;;;;;0.88;0.10;;;20.70;43.40;;;;;;5049962;28;20032;-44
2020/12/21 07:01:56;;;;;;;0.30;0.00;;;20.70;43.40;;;;;;5042433;28;20108;-40
2020/12/21 07:04:24;;;;;;;0.13;0.00;;;20.70;43.60;;;;;;5025942;28;20024;-42
2020/12/21 07:06:51;;;;;;;0.30;0.10;;;20.80;43.60;;;;;;5047287;28;20025;-43
2020/12/21 07:09:34;;;;;;;0.32;0.10;;;20.80;43.60;;;;;;5048139;28;20111;-41
2020/12/21 07:12:05;;;;;;;1.33;0.40;;;20.80;43.60;;;;;;5045174;28;20052;-45
2020/12/21 07:14:34;;;;;;;1.00;0.10;;;20.80;43.70;;;;;;5004186;28;20025;-42
2020/12/21 07:17:01;;;;;;;1.20;0.10;;;20.80;43.60;;;;;;5039753;28;20086;-42
2020/12/21 07:19:26;;;;;;;0.47;0.15;;;20.70;43.50;;;;;;5045575;28;20102;-44
2020/12/21 07:21:53;;;;;;;0.65;0.10;;;20.70;43.50;;;;;;5050176;28;20487;-40
2020/12/21 07:24:22;;;;;;;0.80;0.10;;;20.70;43.50;;;;;;5047352;28;20048;-44
2020/12/21 07:26:48;;;;;;;1.00;0.10;;;20.70;43.40;;;;;;5044858;28;20363;-43
2020/12/21 07:29:13;;;;;;;2.35;0.20;;;20.70;43.40;;;;;;5048610;28;20027;-42
2020/12/21 07:31:39;;;;;;;2.55;0.30;;;20.60;43.40;;;;;;5050437;28;20026;-44
2020/12/21 07:34:05;;;;;;;1.00;0.10;;;20.70;43.50;;;;;;5043092;28;20028;-44
2020/12/21 07:36:37;;;;;;;1.00;0.10;;;20.60;43.50;;;;;;5056064;28;20029;-42
2020/12/21 07:39:09;;;;;;;0.40;0.10;;;20.60;43.50;;;;;;5033002;28;20025;-41
2020/12/21 07:41:38;;;;;;;0.80;0.10;;;20.60;43.50;;;;;;5044688;28;20508;-41
2020/12/21 07:44:30;;;;;;;2.92;0.20;;;20.60;43.60;;;;;;5049924;28;20107;-43
2020/12/21 07:47:11;;;;;;;1.45;0.17;;;20.60;43.60;;;;;;5039650;28;20033;-44
2020/12/21 07:49:38;;;;;;;0.52;0.10;;;20.60;43.60;;;;;;5046830;28;20025;-41
2020/12/21 07:52:05;;;;;;;0.40;0.10;;;20.50;43.60;;;;;;5049778;28;20107;-41
2020/12/21 07:54:40;;;;;;;0.75;0.20;;;20.50;43.60;;;;;;5045940;28;20114;-42
2020/12/21 07:57:08;;;;;;;0.82;0.13;;;20.50;44.10;;;;;;5048473;28;20497;-36
2020/12/21 07:59:34;;;;;;;3.50;0.30;;;20.40;43.60;;;;;;5047942;28;20035;-41
2020/12/21 08:02:01;;;;;;;2.25;0.30;;;20.40;43.50;;;;;;5047151;28;20701;-41
2020/12/21 08:04:27;;;;;;;0.93;0.13;;;20.40;43.70;;;;;;5050055;28;20029;-44
2020/12/21 08:06:54;;;;;;;0.95;0.10;;;20.40;43.70;;;;;;5049590;28;20032;-43
2020/12/21 08:09:20;;;;;;;2.13;0.28;;;20.40;43.60;;;;;;5045538;28;20025;-43
2020/12/21 08:11:46;;;;;;;1.77;0.20;;;20.40;43.70;;;;;;5046672;28;20118;-45
2020/12/21 08:14:16;;;;;;;1.70;0.28;;;20.30;43.60;;;;;;5030891;28;20107;-41
2020/12/21 08:16:41;;;;;;;1.25;0.10;;;20.40;43.70;;;;;;5046915;28;20352;-45
2020/12/21 08:19:20;;;;;;;0.70;0.20;;;20.30;43.70;;;;;;5044790;28;20100;-43
2020/12/21 08:21:46;;;;;;;1.60;0.20;;;20.30;43.70;;;;;;5039579;28;20025;-39
2020/12/21 08:24:11;;;;;;;0.90;0.20;;;20.30;43.70;;;;;;5044678;28;20036;-42
2020/12/21 08:26:37;;;;;;;0.98;0.28;;;20.30;43.60;;;;;;5040993;28;20405;-43
2020/12/21 08:29:04;;;;;;;0.55;0.10;;;20.30;43.60;;;;;;5046872;28;20099;-41
2020/12/21 08:31:29;;;;;;;1.20;0.20;;;20.40;43.60;;;;;;5045421;28;20039;-44
2020/12/21 08:34:01;;;;;;;0.60;0.10;;;20.30;43.50;;;;;;5047133;28;20115;-43
2020/12/21 08:36:28;;;;;;;0.77;0.20;;;20.40;43.40;;;;;;5049177;28;20028;-41
2020/12/21 08:39:10;;;;;;;1.00;0.20;;;20.50;43.40;;;;;;5046204;28;20041;-41
2020/12/21 08:41:54;;;;;;;0.75;0.10;;;20.50;43.20;;;;;;5046027;28;20051;-40
2020/12/21 08:44:23;;;;;;;0.57;0.17;;;20.60;43.10;;;;;;5048091;28;20088;-40
2020/12/21 08:46:57;;;;;;;1.20;0.15;;;20.70;42.90;;;;;;5047255;28;20517;-45
2020/12/21 08:49:24;;;;;;;0.70;0.10;;;20.80;42.80;;;;;;5048576;28;20045;-41
2020/12/21 08:51:50;;;;;;;0.85;0.20;;;20.90;42.70;;;;;;5047725;28;20091;-41
2020/12/21 08:54:16;;;;;;;2.25;0.30;;;20.90;42.60;;;;;;5046064;28;20028;-43
2020/12/21 08:56:48;;;;;;;0.45;0.10;;;21.00;42.60;;;;;;5048225;28;20033;-41
2020/12/21 08:59:15;;;;;;;0.98;0.20;;;21.00;42.60;;;;;;5046510;28;20554;-42
2020/12/21 09:01:42;;;;;;;0.88;0.17;;;21.00;42.60;;;;;;5048691;28;20029;-43
2020/12/21 09:04:08;;;;;;;1.88;0.30;;;21.00;42.60;;;;;;5042797;28;20029;-43
2020/12/21 09:06:34;;;;;;;0.98;0.28;;;21.00;42.50;;;;;;5036452;28;20032;-45
2020/12/21 09:08:59;;;;;;;0.43;0.10;;;21.10;42.50;;;;;;5049967;28;20029;-42
2020/12/21 09:11:25;;;;;;;0.93;0.22;;;21.10;42.40;;;;;;5031507;28;20108;-40
2020/12/21 09:13:51;;;;;;;1.13;0.20;;;21.20;42.30;;;;;;5046697;28;20059;-41
2020/12/21 09:16:22;;;;;;;0.95;0.25;;;21.20;42.30;;;;;;5048440;28;20021;-42
2020/12/21 09:18:48;;;;;;;0.70;0.20;;;21.30;42.20;;;;;;5040310;28;20135;-44
2020/12/21 09:21:30;;;;;;;0.95;0.10;;;21.30;42.20;;;;;;5030870;28;20103;-42
2020/12/21 09:24:00;;;;;;;1.25;0.20;;;21.30;42.20;;;;;;5030747;28;20038;-40
2020/12/21 09:26:26;;;;;;;0.98;0.22;;;21.30;42.20;;;;;;5047391;28;20044;-43
2020/12/21 09:28:53;;;;;;;1.35;0.30;;;21.30;42.20;;;;;;5048235;28;20086;-39
2020/12/21 09:31:20;;;;;;;1.25;0.30;;;21.30;42.20;;;;;;5049376;28;20040;-42
2020/12/21 09:33:47;;;;;;;0.73;0.10;;;21.20;42.20;;;;;;5047597;28;20783;-38
2020/12/21 09:36:14;;;;;;;2.75;0.30;;;21.20;42.30;;;;;;5048000;28;20025;-42
2020/12/21 09:38:39;;;;;;;0.55;0.20;;;21.20;42.30;;;;;;5048465;28;20078;-43
2020/12/21 09:41:05;;;;;;;1.33;0.30;;;21.20;42.50;;;;;;5044371;28;20112;-42
2020/12/21 09:43:32;;;;;;;2.08;0.20;;;21.10;42.50;;;;;;5049026;28;20025;-43
2020/12/21 09:45:57;;;;;;;0.95;0.22;;;21.10;42.50;;;;;;5040012;28;20024;-44
2020/12/21 09:48:23;;;;;;;1.20;0.30;;;21.10;42.60;;;;;;5042236;28;20025;-40
2020/12/21 09:50:49;;;;;;;1.15;0.20;;;21.00;42.60;;;;;;5041596;28;20013;-38
2020/12/21 09:53:15;;;;;;;0.60;0.28;;;21.00;42.60;;;;;;5047907;28;20025;-41
2020/12/21 09:55:42;;;;;;;1.58;0.28;;;21.00;42.60;;;;;;5047433;28;20020;-41
2020/12/21 09:58:07;;;;;;;1.88;0.25;;;21.00;42.70;;;;;;5048498;28;20025;-39
2020/12/21 10:00:33;;;;;;;2.95;0.20;;;21.00;42.80;;;;;;5045997;28;20490;-42
2020/12/21 10:02:58;;;;;;;1.42;0.20;;;21.00;42.80;;;;;;5048312;28;20029;-45
2020/12/21 10:05:24;;;;;;;0.90;0.20;;;20.90;42.80;;;;;;5041719;28;20389;-43
2020/12/21 10:07:49;;;;;;;0.80;0.28;;;20.90;42.90;;;;;;5044190;28;20513;-43
2020/12/21 10:10:15;;;;;;;1.52;0.30;;;20.90;42.90;;;;;;5037988;28;20397;-42
2020/12/21 10:12:40;;;;;;;1.35;0.20;;;20.90;42.90;;;;;;5045075;28;20045;-41
2020/12/21 10:15:06;;;;;;;0.98;0.20;;;20.80;42.90;;;;;;5047298;28;20035;-42
2020/12/21 10:17:32;;;;;;;0.75;0.15;;;20.80;43.00;;;;;;5042554;28;20082;-42
2020/12/21 10:19:57;;;;;;;1.45;0.30;;;20.80;43.00;;;;;;5047920;28;20588;-45
2020/12/21 10:22:23;;;;;;;1.70;0.30;;;20.80;43.00;;;;;;5047804;28;20017;-41
2020/12/21 10:24:48;;;;;;;1.02;0.30;;;20.70;43.00;;;;;;5045485;28;20029;-41
2020/12/21 10:27:14;;;;;;;0.90;0.20;;;20.70;43.00;;;;;;5045518;28;20051;-43
2020/12/21 10:29:39;;;;;;;0.85;0.20;;;20.70;43.00;;;;;;5046935;28;20025;-43
2020/12/21 10:32:05;;;;;;;1.05;0.17;;;20.80;43.60;;;;;;5030278;28;20340;-39
2020/12/21 10:34:31;;;;;;;0.82;0.20;;;20.70;43.00;;;;;;5042844;28;20033;-48
2020/12/21 10:36:56;;;;;;;0.73;0.20;;;20.70;43.10;;;;;;5026161;28;20039;-46
2020/12/21 10:39:22;;;;;;;1.67;0.20;;;20.80;43.10;;;;;;5034890;28;20720;-47
2020/12/21 10:41:48;;;;;;;0.60;0.20;;;20.80;43.10;;;;;;5045889;28;20037;-45
2020/12/21 10:44:13;;;;;;;0.85;0.20;;;20.90;43.10;;;;;;5043844;28;20025;-47
2020/12/21 10:46:39;;;;;;;0.57;0.20;;;20.90;43.10;;;;;;5042675;28;20693;-44
2020/12/21 10:49:05;;;;;;;0.73;0.20;;;20.90;43.30;;;;;;5041971;28;20043;-47
2020/12/21 10:51:32;;;;;;;1.10;0.17;;;20.90;43.30;;;;;;5013636;28;20025;-46
2020/12/21 10:53:58;;;;;;;1.63;0.30;;;20.90;43.30;;;;;;5044693;28;20032;-47
2020/12/21 10:56:25;;;;;;;1.15;0.50;;;20.90;43.40;;;;;;5044114;28;20033;-42
2020/12/21 10:58:50;;;;;;;1.27;0.52;;;20.90;43.40;;;;;;5046412;28;20096;-49
2020/12/21 11:01:17;;;;;;;1.33;0.30;;;21.00;43.60;;;;;;5046488;28;20178;-46
2020/12/21 11:03:43;;;;;;;2.08;0.20;;;20.90;43.50;;;;;;5032307;28;20055;-47
2020/12/21 11:06:08;;;;;;;0.75;0.30;;;20.90;43.50;;;;;;5046903;28;20442;-48
2020/12/21 11:08:34;;;;;;;1.23;0.30;;;21.00;43.50;;;;;;5048277;28;20104;-44
2020/12/21 11:10:59;;;;;;;0.80;0.30;;;20.90;43.40;;;;;;5050058;28;20028;-45
2020/12/21 11:13:25;;;;;;;0.90;0.22;;;21.00;43.50;;;;;;5048218;28;20025;-45
2020/12/21 11:15:51;;;;;;;0.80;0.30;;;21.10;43.40;;;;;;5049543;28;20037;-50
2020/12/21 11:18:17;;;;;;;1.00;0.40;;;21.20;43.20;;;;;;5048387;28;20037;-47
2020/12/21 11:20:43;;;;;;;1.38;0.20;;;21.20;43.20;;;;;;5044885;28;20790;-48
2020/12/21 11:23:08;;;;;;;1.48;0.50;;;21.30;43.20;;;;;;5050347;28;20066;-50
2020/12/21 11:25:36;;;;;;;0.65;0.10;;;21.50;43.20;;;;;;5050484;28;20021;-50
2020/12/21 11:28:05;;;;;;;1.88;0.47;;;21.60;42.90;;;;;;5050045;28;20040;-49
2020/12/21 11:30:30;;;;;;;1.40;0.20;;;21.70;42.80;;;;;;5047599;28;20037;-45
2020/12/21 11:32:56;;;;;;;1.77;0.20;;;21.80;42.70;;;;;;5049528;28;20020;-44
2020/12/21 11:35:23;;;;;;;0.73;0.20;;;21.80;42.70;;;;;;5046781;28;20466;-46
2020/12/21 11:37:49;;;;;;;2.50;0.20;;;21.80;42.70;;;;;;5043905;28;20104;-44
2020/12/21 11:40:15;;;;;;;1.83;0.40;;;21.80;42.70;;;;;;5046968;28;20532;-49
2020/12/21 11:42:40;;;;;;;0.40;0.13;;;21.80;42.70;;;;;;5023719;28;20033;-50
2020/12/21 11:45:06;;;;;;;2.33;0.28;;;21.90;42.60;;;;;;5040942;28;20618;-49
2020/12/21 11:47:32;;;;;;;1.35;0.30;;;21.90;42.70;;;;;;5041441;28;20032;-50
2020/12/21 11:49:57;;;;;;;1.33;0.40;;;21.80;42.70;;;;;;5042270;28;20123;-49
2020/12/21 11:52:23;;;;;;;0.85;0.20;;;21.80;42.70;;;;;;5043851;28;20401;-48
2020/12/21 11:54:49;;;;;;;1.10;0.28;;;21.90;42.70;;;;;;5042623;28;20551;-46
2020/12/21 11:57:14;;;;;;;0.60;0.20;;;21.80;42.80;;;;;;5041680;28;20031;-47
2020/12/21 11:59:40;;;;;;;0.93;0.40;;;21.80;42.80;;;;;;5045388;28;20033;-45
2020/12/21 12:02:05;;;;;;;0.55;0.20;;;21.80;42.90;;;;;;5045487;28;20393;-49
2020/12/21 12:04:33;;;;;;;0.60;0.20;;;21.70;43.00;;;;;;5043587;28;20612;-47
2020/12/21 12:07:01;;;;;;;1.15;0.43;;;21.80;43.00;;;;;;5044685;28;20028;-46
2020/12/21 12:09:27;;;;;;;0.73;0.20;;;21.70;43.00;;;;;;5049043;28;20028;-46
2020/12/21 12:11:54;;;;;;;1.05;0.20;;;21.70;43.20;;;;;;5024546;28;20047;-48
2020/12/21 12:14:19;;;;;;;1.33;0.20;;;21.70;43.30;;;;;;5020926;28;20079;-47
2020/12/21 12:16:45;;;;;;;1.60;0.30;;;21.70;43.40;;;;;;5043723;28;20040;-46
2020/12/21 12:19:11;;;;;;;1.00;0.20;;;21.70;43.40;;;;;;5040953;28;20531;-50
2020/12/21 12:21:36;;;;;;;1.40;0.20;;;21.70;43.40;;;;;;5041591;28;20116;-43
2020/12/21 12:24:02;;;;;;;2.22;0.40;;;21.70;43.50;;;;;;5041652;28;20052;-44
2020/12/21 12:26:28;;;;;;;1.38;0.30;;;21.60;43.50;;;;;;5044742;28;20022;-44
2020/12/21 12:28:54;;;;;;;2.47;0.30;;;21.60;43.50;;;;;;5049257;28;20021;-45
2020/12/21 12:31:21;;;;;;;0.90;0.30;;;21.60;43.50;;;;;;5049318;28;20025;-48
2020/12/21 12:33:48;;;;;;;0.88;0.30;;;21.60;43.50;;;;;;5048583;28;20036;-43
2020/12/21 12:36:21;;;;;;;3.53;0.30;;;21.60;43.40;;;;;;5028700;28;20029;-43
2020/12/21 12:38:47;;;;;;;0.93;0.30;;;21.60;43.50;;;;;;5044021;28;20473;-45
2020/12/21 12:41:13;;;;;;;1.23;0.40;;;21.60;43.50;;;;;;5049336;28;20558;-40
2020/12/21 12:43:39;;;;;;;1.90;0.40;;;21.50;44.00;;;;;;5044408;28;20025;-43
2020/12/21 12:46:06;;;;;;;1.30;0.70;;;21.50;43.60;;;;;;5044542;28;20819;-44